Time;durP1;ratioP1;P1;durP2;ratioP2;P2;SDS_P1;SDS_P2;PMS_P1;PMS_P2;Temp;Humidity;BMP_temperature;BMP_pressure;BME280_temperature;BME280_humidity;BME280_pressure;Samples;Min_cycle;Max_cycle;Signal;HPM_P1;HPM_P2
2021/03/08 00:00:34;;;;;;;9.50;2.33;;;26.20;96.40;;;;;;5067683;28;20178;-71
2021/03/08 00:03:03;;;;;;;9.27;2.70;;;26.20;96.20;;;;;;5057316;28;20242;-70
2021/03/08 00:05:31;;;;;;;8.93;2.40;;;26.40;96.10;;;;;;5054395;28;20180;-72
2021/03/08 00:07:58;;;;;;;14.03;3.00;;;26.60;95.80;;;;;;5051772;28;20679;-72
2021/03/08 00:10:26;;;;;;;9.47;2.50;;;26.60;95.80;;;;;;5051731;28;20194;-71
2021/03/08 00:12:53;;;;;;;12.43;2.70;;;26.70;95.60;;;;;;5061790;28;20185;-70
2021/03/08 00:15:22;;;;;;;12.30;2.77;;;26.80;95.30;;;;;;5056992;28;20175;-71
2021/03/08 00:17:51;;;;;;;10.47;2.50;;;27.00;95.50;;;;;;5041698;28;20187;-72
2021/03/08 00:20:27;;;;;;;5.17;2.10;;;27.40;94.90;;;;;;5058365;28;20270;-71
2021/03/08 00:22:56;;;;;;;5.67;2.30;;;27.50;94.20;;;;;;5053074;28;20175;-69
2021/03/08 00:25:29;;;;;;;7.60;2.60;;;27.70;94.20;;;;;;5055853;28;20187;-71
2021/03/08 00:27:57;;;;;;;11.70;2.60;;;28.00;93.60;;;;;;5050433;28;20240;-71
2021/03/08 00:30:26;;;;;;;6.53;1.87;;;28.00;92.90;;;;;;5052402;28;20167;-72
2021/03/08 00:32:53;;;;;;;6.60;1.83;;;28.20;92.20;;;;;;5051190;28;20539;-71
2021/03/08 00:35:21;;;;;;;7.37;2.20;;;28.30;92.10;;;;;;5050991;28;20635;-72
2021/03/08 00:37:48;;;;;;;7.73;2.00;;;28.60;91.60;;;;;;5055927;28;20628;-70
2021/03/08 00:40:18;;;;;;;4.97;1.90;;;28.80;91.20;;;;;;5055872;28;20175;-73
2021/03/08 00:42:46;;;;;;;6.57;2.10;;;28.70;91.20;;;;;;5055717;28;20207;-73
2021/03/08 00:45:17;;;;;;;9.17;2.30;;;28.90;91.10;;;;;;5056157;28;20163;-72
2021/03/08 00:47:45;;;;;;;6.83;2.30;;;28.90;91.10;;;;;;5071235;28;20693;-72
2021/03/08 00:50:19;;;;;;;3.57;1.53;;;29.00;91.10;;;;;;5052806;28;20313;-72
2021/03/08 00:52:47;;;;;;;8.43;2.30;;;29.00;90.60;;;;;;5074392;28;20229;-72
2021/03/08 00:55:16;;;;;;;7.53;2.07;;;29.20;90.70;;;;;;5074383;28;20167;-71
2021/03/08 00:57:43;;;;;;;10.13;2.50;;;29.20;90.40;;;;;;5047977;28;20208;-72
2021/03/08 01:00:14;;;;;;;7.03;2.37;;;29.50;90.40;;;;;;5057316;28;20183;-71
2021/03/08 01:02:42;;;;;;;4.93;1.67;;;29.60;89.90;;;;;;5073841;28;20196;-71
2021/03/08 01:05:10;;;;;;;6.60;1.77;;;29.70;89.10;;;;;;5075156;28;20179;-70
2021/03/08 01:07:37;;;;;;;9.20;1.70;;;29.80;89.30;;;;;;5055398;28;20303;-70
2021/03/08 01:10:13;;;;;;;9.77;1.93;;;29.80;88.00;;;;;;5068228;28;20676;-69
2021/03/08 01:12:42;;;;;;;5.57;2.07;;;29.60;87.60;;;;;;5075171;28;20214;-70
2021/03/08 01:15:10;;;;;;;7.67;2.10;;;29.70;88.60;;;;;;5075241;28;20555;-71
2021/03/08 01:17:38;;;;;;;6.50;1.97;;;29.70;88.10;;;;;;5075301;28;20178;-69
2021/03/08 01:20:15;;;;;;;7.97;1.97;;;29.70;87.10;;;;;;5061266;28;20194;-69
2021/03/08 01:22:43;;;;;;;6.00;2.10;;;29.80;87.50;;;;;;5056273;28;20210;-69
2021/03/08 01:25:31;;;;;;;3.53;1.33;;;29.90;87.70;;;;;;5055547;28;20176;-69
2021/03/08 01:27:59;;;;;;;5.07;1.83;;;30.00;86.80;;;;;;5074884;28;20238;-70
2021/03/08 01:30:32;;;;;;;9.13;2.83;;;30.30;86.90;;;;;;5075030;28;20502;-70
2021/03/08 01:33:00;;;;;;;4.38;1.70;;;30.40;86.60;;;;;;5074803;28;20171;-69
2021/03/08 01:35:27;;;;;;;6.43;1.90;;;30.60;86.30;;;;;;5071428;28;21820;-69
2021/03/08 01:37:54;;;;;;;10.75;2.20;;;30.80;85.80;;;;;;5075177;28;20167;-70
2021/03/08 01:40:24;;;;;;;6.43;1.87;;;31.00;85.10;;;;;;5074181;28;20665;-69
2021/03/08 01:42:52;;;;;;;10.93;2.77;;;31.00;84.60;;;;;;5074634;28;20236;-71
2021/03/08 01:45:22;;;;;;;7.40;2.00;;;31.20;84.00;;;;;;5074875;28;20258;-71
2021/03/08 01:47:50;;;;;;;5.40;1.80;;;31.10;83.90;;;;;;5074349;28;20298;-72
2021/03/08 01:50:29;;;;;;;6.40;2.00;;;31.10;83.90;;;;;;5056617;28;20203;-71
2021/03/08 01:52:57;;;;;;;8.57;1.87;;;31.20;84.20;;;;;;5072207;28;20265;-74
2021/03/08 01:55:25;;;;;;;5.68;1.73;;;31.50;82.80;;;;;;5074722;28;20175;-69
2021/03/08 01:57:53;;;;;;;7.35;1.85;;;31.70;83.10;;;;;;5074964;28;20214;-69
2021/03/08 02:00:25;;;;;;;9.90;2.10;;;31.70;82.00;;;;;;5074884;28;20642;-68
2021/03/08 02:02:53;;;;;;;5.53;1.75;;;31.60;81.50;;;;;;5074569;28;20191;-69
2021/03/08 02:05:24;;;;;;;5.80;1.80;;;31.50;82.40;;;;;;5074173;28;20179;-67
2021/03/08 02:07:52;;;;;;;8.65;2.08;;;31.40;81.70;;;;;;5074636;28;20210;-70
2021/03/08 02:10:21;;;;;;;10.48;2.40;;;31.40;82.10;;;;;;5074310;28;20171;-69
2021/03/08 02:12:48;;;;;;;7.13;1.85;;;31.60;81.90;;;;;;5073596;28;20537;-69
2021/03/08 02:15:22;;;;;;;9.40;2.35;;;31.80;81.00;;;;;;5062901;28;20175;-70
2021/03/08 02:18:04;;;;;;;6.35;1.75;;;31.70;81.20;;;;;;5053756;28;20195;-69
2021/03/08 02:21:16;;;;;;;6.90;2.20;;;31.40;82.30;;;;;;5053309;28;20176;-70
2021/03/08 02:23:46;;;;;;;7.28;1.92;;;31.10;82.40;;;;;;5038157;28;20227;-67
2021/03/08 02:26:31;;;;;;;8.57;2.33;;;31.00;82.10;;;;;;5053215;28;20226;-68
2021/03/08 02:29:28;;;;;;;4.07;1.80;;;31.10;82.00;;;;;;5034886;28;20278;-69
2021/03/08 02:31:58;;;;;;;5.97;1.67;;;31.20;81.70;;;;;;5054108;28;20541;-69
2021/03/08 02:34:30;;;;;;;7.45;2.70;;;31.60;81.00;;;;;;5068271;28;20569;-68
2021/03/08 02:37:18;;;;;;;8.63;2.58;;;32.00;80.20;;;;;;5063083;28;20172;-69
2021/03/08 02:39:51;;;;;;;6.63;1.95;;;32.00;80.00;;;;;;5059648;28;20215;-69
2021/03/08 02:42:26;;;;;;;7.47;1.92;;;32.10;78.80;;;;;;5050780;28;20187;-68
2021/03/08 02:45:00;;;;;;;4.70;1.50;;;32.60;78.10;;;;;;5052314;28;20296;-72
2021/03/08 02:47:30;;;;;;;5.82;1.92;;;33.10;76.70;;;;;;5067748;28;20225;-71
2021/03/08 02:50:02;;;;;;;7.60;2.33;;;33.10;75.80;;;;;;5055079;28;20168;-68
2021/03/08 02:52:34;;;;;;;10.50;2.00;;;33.20;75.40;;;;;;5055728;28;20192;-72
2021/03/08 02:55:04;;;;;;;8.23;2.22;;;33.00;75.90;;;;;;5053332;28;20579;-69
2021/03/08 02:57:39;;;;;;;9.00;1.77;;;32.70;76.20;;;;;;5051151;28;20543;-71
2021/03/08 03:00:10;;;;;;;4.70;1.67;;;32.20;76.80;;;;;;5051511;28;20588;-69
2021/03/08 03:02:40;;;;;;;7.50;2.00;;;31.90;76.80;;;;;;5052549;28;20171;-70
2021/03/08 03:05:13;;;;;;;8.98;2.20;;;32.00;77.70;;;;;;5051292;28;20524;-69
2021/03/08 03:07:45;;;;;;;7.80;1.70;;;31.90;77.50;;;;;;5061132;28;20234;-69
2021/03/08 03:10:15;;;;;;;5.47;1.95;;;31.60;78.20;;;;;;5061789;28;20259;-69
2021/03/08 03:12:43;;;;;;;4.43;1.70;;;31.50;78.20;;;;;;5060525;28;20278;-67
2021/03/08 03:15:13;;;;;;;5.53;2.00;;;31.40;77.50;;;;;;5058248;28;20179;-70
2021/03/08 03:17:42;;;;;;;8.43;1.60;;;31.20;77.50;;;;;;5053188;28;20665;-68
2021/03/08 03:20:13;;;;;;;5.10;1.70;;;31.10;78.70;;;;;;5051358;28;20242;-67
2021/03/08 03:22:44;;;;;;;8.35;1.83;;;31.20;78.00;;;;;;5052081;28;20721;-68
2021/03/08 03:25:17;;;;;;;5.63;1.98;;;31.10;77.90;;;;;;5065759;28;20191;-71
2021/03/08 03:27:49;;;;;;;9.40;1.95;;;31.00;78.20;;;;;;5051516;28;20322;-69
2021/03/08 03:30:22;;;;;;;8.48;1.92;;;31.10;77.80;;;;;;5049140;28;20180;-71
2021/03/08 03:32:50;;;;;;;6.17;1.73;;;30.90;78.20;;;;;;5048255;28;20251;-70
2021/03/08 03:35:21;;;;;;;6.20;1.97;;;30.80;78.40;;;;;;5051582;28;20184;-70
2021/03/08 03:37:50;;;;;;;7.13;2.17;;;30.60;78.90;;;;;;5053345;28;20215;-67
2021/03/08 03:40:19;;;;;;;5.53;2.23;;;30.50;79.20;;;;;;5051822;28;20214;-69
2021/03/08 03:42:49;;;;;;;4.93;1.70;;;30.40;79.80;;;;;;5051700;28;20195;-71
2021/03/08 03:45:22;;;;;;;9.63;2.60;;;30.30;79.70;;;;;;5051496;28;20191;-71
2021/03/08 03:47:50;;;;;;;13.10;2.50;;;30.30;79.80;;;;;;5052314;28;20227;-70
2021/03/08 03:50:20;;;;;;;8.60;2.00;;;30.30;80.00;;;;;;5055094;28;20180;-68
2021/03/08 03:52:49;;;;;;;9.90;2.00;;;30.20;79.80;;;;;;5052235;28;20190;-70
2021/03/08 03:55:19;;;;;;;4.60;1.70;;;30.20;79.80;;;;;;5050703;28;20199;-68
2021/03/08 03:58:01;;;;;;;5.33;2.20;;;30.20;79.80;;;;;;5049687;28;20200;-71
2021/03/08 04:00:30;;;;;;;5.50;2.20;;;30.20;80.00;;;;;;5057173;28;20611;-69
2021/03/08 04:03:09;;;;;;;11.00;2.35;;;30.20;80.70;;;;;;5052439;28;20195;-70
2021/03/08 04:05:39;;;;;;;7.23;2.47;;;30.20;80.70;;;;;;5055156;28;20516;-71
2021/03/08 04:08:10;;;;;;;9.50;2.15;;;30.20;80.60;;;;;;5052656;28;20215;-69
2021/03/08 04:10:40;;;;;;;8.70;2.10;;;30.20;80.70;;;;;;5052796;28;20199;-67
2021/03/08 04:13:14;;;;;;;9.02;2.00;;;30.10;80.90;;;;;;5057489;28;20198;-68
2021/03/08 04:15:42;;;;;;;5.70;1.70;;;30.00;81.40;;;;;;5054613;28;20274;-68
2021/03/08 04:18:12;;;;;;;3.00;1.67;;;29.80;82.30;;;;;;5057356;28;20187;-68
2021/03/08 04:20:42;;;;;;;7.37;1.93;;;29.80;82.20;;;;;;5050585;28;20179;-70
2021/03/08 04:23:13;;;;;;;8.77;2.27;;;29.90;82.40;;;;;;5054993;28;20267;-71
2021/03/08 04:25:45;;;;;;;6.33;1.73;;;30.00;82.20;;;;;;5053719;28;20230;-71
2021/03/08 04:28:13;;;;;;;10.67;2.40;;;30.30;82.00;;;;;;5050787;28;20242;-72
2021/03/08 04:30:45;;;;;;;8.03;1.87;;;30.50;81.40;;;;;;5049990;28;20686;-69
2021/03/08 04:33:14;;;;;;;9.20;2.13;;;30.40;80.90;;;;;;5047307;28;20195;-71
2021/03/08 04:35:45;;;;;;;4.35;2.00;;;30.50;81.20;;;;;;5049518;28;20178;-70
2021/03/08 04:38:14;;;;;;;5.85;1.73;;;30.70;80.90;;;;;;5052485;28;20180;-70
2021/03/08 04:40:42;;;;;;;8.77;2.27;;;30.80;80.60;;;;;;5042401;28;20187;-69
2021/03/08 04:43:10;;;;;;;6.65;1.90;;;30.80;81.00;;;;;;5050666;28;20678;-70
2021/03/08 04:45:40;;;;;;;4.30;1.55;;;30.70;80.70;;;;;;5053657;28;20188;-70
2021/03/08 04:48:08;;;;;;;8.20;1.57;;;30.40;81.10;;;;;;5048939;28;20211;-71
2021/03/08 04:50:36;;;;;;;8.90;2.27;;;30.30;81.30;;;;;;5045525;28;20207;-69
2021/03/08 04:53:04;;;;;;;7.50;1.90;;;30.20;81.80;;;;;;5049861;28;20184;-71
2021/03/08 04:55:33;;;;;;;7.20;1.83;;;30.00;82.20;;;;;;5064791;28;20256;-71
2021/03/08 04:58:00;;;;;;;7.50;1.97;;;29.90;82.80;;;;;;5045140;28;20260;-72
2021/03/08 05:00:28;;;;;;;7.83;2.23;;;29.80;83.30;;;;;;5053891;28;20175;-71
2021/03/08 05:02:57;;;;;;;7.40;2.17;;;29.70;83.40;;;;;;5064051;28;20708;-73
2021/03/08 05:05:26;;;;;;;9.60;2.50;;;29.60;84.10;;;;;;5054025;28;20180;-73
2021/03/08 05:08:06;;;;;;;10.97;2.20;;;29.50;85.20;;;;;;5060371;28;20260;-75
2021/03/08 05:10:39;;;;;;;9.83;2.77;;;29.40;85.80;;;;;;5052935;28;20179;-70
2021/03/08 05:13:11;;;;;;;4.47;1.77;;;29.20;87.00;;;;;;5058063;28;20191;-72
2021/03/08 05:15:39;;;;;;;5.53;2.30;;;29.10;87.90;;;;;;5060502;28;20183;-70
2021/03/08 05:18:07;;;;;;;5.60;2.33;;;29.10;88.20;;;;;;5071266;28;20179;-70
2021/03/08 05:20:37;;;;;;;8.67;2.77;;;29.00;88.70;;;;;;5051184;28;20208;-72
2021/03/08 05:23:06;;;;;;;9.67;2.80;;;28.90;89.20;;;;;;5043944;28;20180;-71
2021/03/08 05:25:34;;;;;;;6.87;2.30;;;28.90;89.70;;;;;;5054813;28;20179;-72
2021/03/08 05:28:04;;;;;;;7.27;2.23;;;28.70;90.20;;;;;;5069587;28;20239;-71
2021/03/08 05:30:31;;;;;;;8.47;2.47;;;28.70;90.50;;;;;;5058099;28;20206;-70
2021/03/08 05:33:23;;;;;;;3.93;1.70;;;28.60;90.70;;;;;;5054735;28;20202;-71
2021/03/08 05:35:54;;;;;;;8.40;1.93;;;28.50;90.90;;;;;;5046269;28;20188;-72
2021/03/08 05:38:23;;;;;;;12.53;2.40;;;28.50;91.10;;;;;;5055866;28;20208;-72
2021/03/08 05:40:54;;;;;;;7.23;2.30;;;28.40;91.30;;;;;;5052153;28;20266;-70
2021/03/08 05:43:25;;;;;;;4.63;2.30;;;28.50;91.50;;;;;;5052925;28;20222;-71
2021/03/08 05:45:56;;;;;;;7.37;2.07;;;28.40;91.60;;;;;;5053337;28;20188;-69
2021/03/08 05:49:07;;;;;;;9.97;2.20;;;28.20;91.80;;;;;;5053714;28;20211;-69
2021/03/08 05:51:59;;;;;;;8.50;2.63;;;28.10;92.20;;;;;;5052525;28;20192;-73
2021/03/08 05:54:47;;;;;;;7.57;2.30;;;28.00;92.60;;;;;;5054007;28;20693;-71
2021/03/08 05:57:26;;;;;;;7.27;2.30;;;27.90;93.10;;;;;;5071323;28;20176;-70
2021/03/08 06:00:03;;;;;;;10.20;2.40;;;27.70;93.60;;;;;;5049038;28;20181;-72
2021/03/08 06:03:08;;;;;;;9.57;2.17;;;27.60;94.20;;;;;;5034394;28;20176;-71
2021/03/08 06:06:11;;;;;;;6.63;2.60;;;27.40;94.70;;;;;;5042092;28;20306;-70
2021/03/08 06:09:22;;;;;;;8.53;2.13;;;27.30;95.20;;;;;;5038436;28;20208;-69
2021/03/08 06:12:09;;;;;;;15.83;2.60;;;27.00;96.30;;;;;;5034704;28;20192;-70
2021/03/08 06:14:42;;;;;;;10.90;2.63;;;25.80;97.20;;;;;;5052889;28;20191;-70
2021/03/08 06:17:16;;;;;;;11.00;2.60;;;25.20;98.80;;;;;;5043233;28;20563;-70
2021/03/08 06:19:45;;;;;;;9.80;2.33;;;24.80;98.20;;;;;;5053728;28;20542;-69
2021/03/08 06:22:14;;;;;;;14.40;2.27;;;24.60;98.80;;;;;;5052500;28;20552;-69
2021/03/08 06:24:44;;;;;;;9.43;2.37;;;24.40;98.60;;;;;;5054675;28;20176;-72
2021/03/08 06:27:14;;;;;;;5.73;2.17;;;24.30;99.10;;;;;;5053620;28;20658;-73
2021/03/08 06:29:43;;;;;;;15.97;2.53;;;24.20;99.60;;;;;;5049542;28;20177;-73
2021/03/08 06:32:12;;;;;;;8.57;1.80;;;24.00;99.00;;;;;;5052581;28;20654;-72
2021/03/08 06:34:40;;;;;;;3.53;1.73;;;23.80;99.10;;;;;;5052178;28;20262;-67
2021/03/08 06:37:12;;;;;;;12.07;1.97;;;23.90;99.70;;;;;;5049892;28;20176;-70
2021/03/08 06:39:45;;;;;;;12.13;2.23;;;23.90;99.90;;;;;;5053675;28;20287;-66
2021/03/08 06:42:15;;;;;;;8.07;2.10;;;24.00;99.90;;;;;;5052515;28;21725;-69
2021/03/08 06:44:44;;;;;;;10.37;2.03;;;24.10;99.90;;;;;;5052708;28;20212;-70
2021/03/08 06:47:12;;;;;;;6.67;1.30;;;24.00;97.80;;;;;;5052972;28;20277;-68
2021/03/08 06:49:39;;;;;;;6.17;1.47;;;24.00;97.50;;;;;;5050702;28;20194;-66
2021/03/08 06:52:10;;;;;;;6.23;1.33;;;24.00;97.10;;;;;;5053243;28;20646;-68
2021/03/08 06:54:39;;;;;;;5.97;2.63;;;24.10;97.30;;;;;;5052982;28;20195;-69
2021/03/08 06:57:29;;;;;;;2.73;1.40;;;24.30;97.00;;;;;;5052660;28;20200;-69
2021/03/08 07:00:09;;;;;;;4.10;1.20;;;24.30;96.60;;;;;;5052884;28;20176;-67
2021/03/08 07:02:47;;;;;;;5.47;1.33;;;24.50;96.20;;;;;;5038940;28;20180;-69
2021/03/08 07:05:16;;;;;;;4.83;1.37;;;24.50;95.20;;;;;;5052424;28;20589;-69
2021/03/08 07:07:59;;;;;;;3.33;1.60;;;24.60;95.10;;;;;;5052759;28;20207;-68
2021/03/08 07:10:40;;;;;;;7.27;1.50;;;24.70;94.70;;;;;;5052639;28;20182;-67
2021/03/08 07:13:09;;;;;;;4.13;1.33;;;24.70;94.50;;;;;;5052428;28;20290;-72
2021/03/08 07:16:00;;;;;;;7.97;1.33;;;24.60;94.40;;;;;;5049086;28;20172;-67
2021/03/08 07:18:29;;;;;;;5.70;1.90;;;24.70;94.70;;;;;;5055629;28;20689;-68
2021/03/08 07:21:20;;;;;;;4.13;1.60;;;24.80;94.90;;;;;;5065852;28;20574;-68
2021/03/08 07:23:52;;;;;;;7.40;2.13;;;24.90;94.70;;;;;;5072527;28;20186;-69
2021/03/08 07:26:28;;;;;;;4.47;1.90;;;25.00;95.20;;;;;;5060390;28;20739;-68
2021/03/08 07:29:24;;;;;;;5.50;1.90;;;25.10;94.80;;;;;;5042718;28;20223;-68
2021/03/08 07:31:56;;;;;;;6.47;1.70;;;25.50;94.40;;;;;;5048769;28;20283;-67
2021/03/08 07:34:24;;;;;;;3.73;2.17;;;25.80;94.10;;;;;;5053805;28;20207;-68
2021/03/08 07:37:02;;;;;;;7.13;2.17;;;25.60;94.50;;;;;;5069982;28;20662;-69
2021/03/08 07:39:32;;;;;;;18.50;1.83;;;25.40;95.10;;;;;;5070944;28;20187;-70
2021/03/08 07:42:09;;;;;;;6.67;2.03;;;25.50;95.20;;;;;;5070935;28;20201;-69
2021/03/08 07:44:49;;;;;;;12.63;2.17;;;25.20;95.40;;;;;;5065483;28;20228;-69
2021/03/08 07:47:18;;;;;;;5.33;1.50;;;25.20;95.60;;;;;;5057711;28;20206;-69
2021/03/08 07:49:46;;;;;;;6.37;2.00;;;25.10;96.00;;;;;;5059315;28;20179;-70
2021/03/08 07:52:17;;;;;;;8.33;2.20;;;25.00;95.80;;;;;;5072068;28;20527;-69
2021/03/08 07:55:03;;;;;;;6.40;2.30;;;25.00;95.80;;;;;;5045451;28;20179;-70
2021/03/08 07:57:31;;;;;;;5.73;1.90;;;25.10;96.00;;;;;;5040347;28;20867;-68
2021/03/08 07:59:58;;;;;;;10.80;2.07;;;25.10;95.80;;;;;;5059844;28;20184;-72
2021/03/08 08:02:26;;;;;;;6.97;2.30;;;25.10;95.80;;;;;;5057355;28;20713;-70
2021/03/08 08:04:53;;;;;;;3.73;1.73;;;25.20;95.90;;;;;;5071810;28;20183;-72
2021/03/08 08:07:22;;;;;;;4.47;1.70;;;25.10;96.00;;;;;;5070008;28;20238;-69
2021/03/08 08:09:50;;;;;;;6.07;1.80;;;25.10;96.30;;;;;;5068325;28;20270;-71
2021/03/08 08:12:30;;;;;;;3.93;2.00;;;25.10;96.50;;;;;;5067382;28;20179;-72
2021/03/08 08:15:01;;;;;;;6.83;2.00;;;25.10;96.50;;;;;;5069256;28;20261;-73
2021/03/08 08:17:33;;;;;;;5.97;2.00;;;25.10;96.10;;;;;;5068258;28;20194;-70
2021/03/08 08:20:05;;;;;;;8.93;2.27;;;25.20;96.20;;;;;;5054284;28;20188;-69
2021/03/08 08:22:34;;;;;;;6.53;2.43;;;25.20;95.80;;;;;;5053589;28;20215;-71
2021/03/08 08:25:04;;;;;;;3.80;1.90;;;25.30;95.50;;;;;;5059798;28;20270;-68
2021/03/08 08:27:34;;;;;;;6.57;2.17;;;25.30;95.40;;;;;;5054914;28;20243;-69
2021/03/08 08:30:05;;;;;;;8.30;1.97;;;25.30;95.40;;;;;;5056225;28;20638;-69
2021/03/08 08:32:55;;;;;;;7.37;1.77;;;25.30;95.10;;;;;;5060293;28;20191;-69
2021/03/08 08:35:33;;;;;;;9.27;1.53;;;25.30;94.80;;;;;;5055458;28;20187;-73
2021/03/08 08:38:16;;;;;;;3.67;1.53;;;25.30;94.60;;;;;;5064092;28;20193;-73
2021/03/08 08:40:45;;;;;;;5.33;2.40;;;25.30;94.60;;;;;;5052583;28;20196;-71
2021/03/08 08:43:15;;;;;;;9.00;1.80;;;25.30;94.50;;;;;;5054340;28;20275;-71
2021/03/08 08:45:51;;;;;;;5.83;1.53;;;25.30;94.60;;;;;;5059171;28;20191;-74
2021/03/08 08:48:20;;;;;;;6.23;1.70;;;25.20;94.50;;;;;;5070179;28;20210;-68
2021/03/08 08:50:55;;;;;;;3.27;1.63;;;25.10;94.70;;;;;;5058040;28;20179;-73
2021/03/08 08:53:39;;;;;;;3.87;1.70;;;25.10;94.90;;;;;;5059407;28;20180;-70
2021/03/08 08:56:08;;;;;;;6.00;2.27;;;25.00;95.10;;;;;;5058210;28;20222;-68
2021/03/08 08:58:48;;;;;;;4.80;1.77;;;24.90;95.30;;;;;;5063347;28;20729;-68
2021/03/08 09:01:19;;;;;;;4.60;1.83;;;24.90;95.40;;;;;;5054146;28;20212;-71
2021/03/08 09:04:13;;;;;;;6.07;2.07;;;24.90;95.20;;;;;;5055406;28;20180;-70
2021/03/08 09:06:55;;;;;;;6.63;2.17;;;24.80;95.30;;;;;;5051968;28;20183;-69
2021/03/08 09:09:35;;;;;;;4.17;1.70;;;24.70;95.40;;;;;;5038085;28;20192;-70
2021/03/08 09:12:06;;;;;;;3.73;1.80;;;24.70;95.50;;;;;;5044906;28;20176;-68
2021/03/08 09:14:51;;;;;;;5.90;2.30;;;24.70;95.60;;;;;;5053747;28;20195;-69
2021/03/08 09:17:21;;;;;;;3.80;2.03;;;24.60;95.60;;;;;;5049127;28;20568;-68
2021/03/08 09:19:50;;;;;;;4.60;1.77;;;24.60;95.90;;;;;;5053125;28;20195;-69
2021/03/08 09:22:29;;;;;;;2.97;1.50;;;24.50;96.00;;;;;;5054862;28;20180;-68
2021/03/08 09:24:58;;;;;;;7.00;2.10;;;24.40;96.10;;;;;;5054763;28;20203;-67
2021/03/08 09:27:27;;;;;;;5.83;1.70;;;24.50;96.30;;;;;;5054633;28;20277;-68
2021/03/08 09:30:01;;;;;;;5.50;1.47;;;24.40;96.40;;;;;;5055005;28;20555;-68
2021/03/08 09:32:28;;;;;;;4.97;1.60;;;24.30;96.50;;;;;;5055280;28;20226;-70
2021/03/08 09:35:09;;;;;;;5.17;2.00;;;24.30;96.40;;;;;;5053757;28;20188;-71
2021/03/08 09:37:38;;;;;;;5.53;1.50;;;24.30;96.50;;;;;;5053166;28;20343;-71
2021/03/08 09:40:07;;;;;;;5.70;1.90;;;24.20;96.70;;;;;;5054729;28;20199;-70
2021/03/08 09:42:39;;;;;;;4.17;1.50;;;24.20;97.00;;;;;;5054701;28;20175;-71
2021/03/08 09:45:27;;;;;;;7.50;4.10;;;24.10;97.30;;;;;;5054705;28;20542;-68
2021/03/08 09:47:55;;;;;;;10.97;3.90;;;24.00;97.60;;;;;;5054244;28;20219;-71
2021/03/08 09:50:34;;;;;;;6.57;2.00;;;24.00;97.70;;;;;;5053051;28;20245;-69
2021/03/08 09:53:02;;;;;;;5.00;1.70;;;24.00;97.90;;;;;;5054304;28;20175;-70
2021/03/08 09:55:37;;;;;;;3.47;1.60;;;24.00;97.90;;;;;;5051632;28;20610;-71
2021/03/08 09:58:18;;;;;;;5.80;1.83;;;24.00;98.00;;;;;;5053207;28;20202;-71
2021/03/08 10:00:48;;;;;;;3.43;1.93;;;24.00;98.10;;;;;;5052971;28;20184;-70
2021/03/08 10:03:15;;;;;;;3.43;1.90;;;23.90;98.20;;;;;;5054596;28;20761;-72
2021/03/08 10:05:47;;;;;;;4.83;1.80;;;23.90;98.40;;;;;;5053747;28;20270;-72
2021/03/08 10:08:30;;;;;;;4.43;2.23;;;23.90;98.40;;;;;;5054421;28;20225;-70
2021/03/08 10:10:59;;;;;;;5.13;2.00;;;23.80;98.50;;;;;;5053721;28;20542;-71
2021/03/08 10:13:27;;;;;;;5.33;1.67;;;23.80;98.50;;;;;;5052089;28;20184;-71
2021/03/08 10:15:58;;;;;;;4.77;1.80;;;23.80;98.70;;;;;;5053866;28;20305;-72
2021/03/08 10:18:28;;;;;;;7.63;2.23;;;23.70;98.90;;;;;;5053166;28;20195;-71
2021/03/08 10:20:58;;;;;;;8.90;2.33;;;23.70;99.00;;;;;;5050245;28;20269;-72
2021/03/08 10:23:26;;;;;;;5.37;1.60;;;23.70;99.00;;;;;;5053369;28;20261;-71
2021/03/08 10:26:03;;;;;;;2.53;1.57;;;23.70;99.00;;;;;;5053119;28;20657;-72
2021/03/08 10:28:52;;;;;;;5.23;1.50;;;23.80;98.90;;;;;;5053436;28;20235;-71
2021/03/08 10:31:30;;;;;;;3.63;2.10;;;23.70;99.00;;;;;;5054015;28;20195;-72
2021/03/08 10:34:10;;;;;;;5.13;1.93;;;23.70;99.10;;;;;;5053217;28;20635;-72
2021/03/08 10:36:40;;;;;;;4.23;1.63;;;23.60;99.20;;;;;;5050256;28;20184;-69
2021/03/08 10:39:10;;;;;;;4.23;1.70;;;23.60;99.30;;;;;;5046557;28;20198;-68
2021/03/08 10:41:40;;;;;;;3.50;1.70;;;23.60;99.30;;;;;;5051906;28;20183;-69
2021/03/08 10:44:09;;;;;;;6.17;2.10;;;23.60;99.40;;;;;;5049612;28;20179;-71
2021/03/08 10:46:41;;;;;;;4.80;2.03;;;23.50;99.50;;;;;;5052627;28;20187;-71
2021/03/08 10:49:09;;;;;;;5.57;1.97;;;23.40;99.70;;;;;;5047910;28;20195;-73
2021/03/08 10:51:39;;;;;;;9.03;2.27;;;23.40;99.90;;;;;;5052288;28;20265;-73
2021/03/08 10:54:10;;;;;;;5.90;2.20;;;23.30;99.90;;;;;;5043618;28;20199;-70
2021/03/08 10:56:40;;;;;;;7.00;2.40;;;23.30;99.90;;;;;;5050586;28;20241;-70
2021/03/08 10:59:29;;;;;;;4.77;2.03;;;23.30;99.90;;;;;;5053714;28;20585;-71
2021/03/08 11:02:04;;;;;;;2.90;1.80;;;23.30;99.90;;;;;;5053384;28;20188;-70
2021/03/08 11:04:32;;;;;;;8.30;1.83;;;23.20;99.90;;;;;;5051719;28;20651;-70
2021/03/08 11:07:00;;;;;;;3.83;2.07;;;23.20;99.90;;;;;;5051869;28;20233;-70
2021/03/08 11:09:29;;;;;;;3.30;1.67;;;23.20;99.90;;;;;;5047815;28;20202;-71
2021/03/08 11:11:57;;;;;;;8.23;2.33;;;23.20;99.90;;;;;;5053236;28;20627;-70
2021/03/08 11:14:25;;;;;;;5.83;1.93;;;23.20;99.90;;;;;;5053376;28;20191;-70
2021/03/08 11:16:54;;;;;;;7.33;2.10;;;23.10;99.90;;;;;;5050034;28;20271;-70
2021/03/08 11:19:30;;;;;;;7.37;2.43;;;23.10;99.90;;;;;;5046391;28;20233;-70
2021/03/08 11:22:05;;;;;;;5.07;2.23;;;23.10;99.90;;;;;;5050637;28;20187;-70
2021/03/08 11:24:40;;;;;;;6.23;2.03;;;23.00;99.90;;;;;;5052122;28;20218;-70
2021/03/08 11:27:26;;;;;;;3.33;1.90;;;23.00;99.90;;;;;;5052734;28;20230;-71
2021/03/08 11:30:11;;;;;;;8.17;2.03;;;23.00;99.90;;;;;;5053038;28;20278;-70
2021/03/08 11:32:40;;;;;;;5.53;2.13;;;23.00;99.90;;;;;;5059710;28;20638;-70
2021/03/08 11:35:18;;;;;;;6.50;1.80;;;22.90;99.90;;;;;;5064332;28;20256;-71
2021/03/08 11:37:53;;;;;;;5.00;1.90;;;22.90;99.90;;;;;;5072932;28;20179;-70
2021/03/08 11:40:22;;;;;;;5.47;1.70;;;22.80;99.90;;;;;;5069047;28;20645;-69
2021/03/08 11:42:50;;;;;;;6.20;2.07;;;22.80;99.90;;;;;;5072598;28;20269;-71
2021/03/08 11:45:18;;;;;;;3.90;1.67;;;22.80;99.90;;;;;;5072832;28;20191;-71
2021/03/08 11:47:49;;;;;;;8.93;2.20;;;22.90;99.90;;;;;;5072837;28;20242;-70
2021/03/08 11:50:17;;;;;;;9.60;1.80;;;22.90;99.90;;;;;;5072749;28;20179;-70
2021/03/08 11:52:45;;;;;;;9.17;2.10;;;22.90;99.90;;;;;;5060291;28;20194;-69
2021/03/08 11:55:13;;;;;;;5.60;2.27;;;22.80;99.90;;;;;;5059993;28;20219;-70
2021/03/08 11:57:43;;;;;;;4.47;1.47;;;22.70;99.90;;;;;;5072661;28;20517;-70
2021/03/08 12:00:13;;;;;;;3.43;1.77;;;22.70;99.90;;;;;;5072745;28;20186;-70
2021/03/08 12:02:40;;;;;;;4.90;2.00;;;22.60;99.90;;;;;;5058171;28;20186;-70
2021/03/08 12:05:09;;;;;;;4.63;1.80;;;22.50;99.90;;;;;;5060203;28;20188;-71
2021/03/08 12:07:37;;;;;;;5.67;1.90;;;22.60;99.90;;;;;;5072439;28;20553;-70
2021/03/08 12:10:06;;;;;;;3.87;1.50;;;22.50;99.90;;;;;;5072451;28;20175;-70
2021/03/08 12:12:34;;;;;;;2.83;1.73;;;22.50;99.90;;;;;;5069922;28;20183;-70
2021/03/08 12:15:03;;;;;;;8.00;1.77;;;22.60;99.90;;;;;;5069170;28;20175;-69
2021/03/08 12:17:30;;;;;;;3.33;1.60;;;22.60;99.90;;;;;;5049178;28;20180;-69
2021/03/08 12:19:58;;;;;;;4.47;1.80;;;22.70;99.90;;;;;;5051186;28;20199;-71
2021/03/08 12:22:26;;;;;;;8.07;2.10;;;22.70;99.90;;;;;;5052356;28;20191;-71
2021/03/08 12:24:53;;;;;;;8.87;1.80;;;22.70;99.90;;;;;;5051981;28;20184;-70
2021/03/08 12:27:21;;;;;;;9.33;2.10;;;22.70;99.90;;;;;;5052064;28;20223;-70
2021/03/08 12:29:48;;;;;;;5.23;2.10;;;22.70;99.90;;;;;;5052555;28;20180;-70
2021/03/08 12:32:16;;;;;;;4.97;1.33;;;22.70;99.90;;;;;;5053071;28;20184;-71
2021/03/08 12:34:43;;;;;;;6.30;1.90;;;22.70;99.90;;;;;;5056138;28;20184;-70
2021/03/08 12:37:10;;;;;;;6.50;2.10;;;22.70;99.90;;;;;;5056563;28;20545;-70
2021/03/08 12:39:38;;;;;;;4.30;1.87;;;22.70;99.90;;;;;;5056263;28;20637;-70
2021/03/08 12:42:06;;;;;;;4.13;1.90;;;22.70;99.90;;;;;;5056390;28;20527;-70
2021/03/08 12:44:34;;;;;;;5.20;1.87;;;22.70;99.90;;;;;;5043778;28;20571;-71
2021/03/08 12:47:01;;;;;;;4.57;1.60;;;22.70;99.90;;;;;;5055850;28;20203;-70
2021/03/08 12:49:28;;;;;;;2.93;2.00;;;22.70;99.90;;;;;;5055508;28;20195;-71
2021/03/08 12:51:57;;;;;;;4.33;1.60;;;22.70;99.90;;;;;;5046758;28;20180;-69
2021/03/08 12:54:24;;;;;;;12.07;2.07;;;22.60;99.90;;;;;;5055465;28;20698;-69
2021/03/08 12:56:51;;;;;;;3.37;1.87;;;22.70;99.90;;;;;;5061574;28;20206;-68
2021/03/08 12:59:19;;;;;;;4.73;1.87;;;22.60;99.90;;;;;;5056337;28;20196;-68
2021/03/08 13:01:46;;;;;;;6.93;1.80;;;22.50;99.90;;;;;;5069247;28;20539;-69
2021/03/08 13:04:14;;;;;;;2.27;1.43;;;22.50;99.90;;;;;;5048521;28;20180;-69
2021/03/08 13:06:41;;;;;;;2.63;1.70;;;22.40;99.90;;;;;;5061793;28;20176;-68
2021/03/08 13:09:08;;;;;;;4.43;1.60;;;22.40;99.90;;;;;;5056122;28;20190;-69
2021/03/08 13:11:36;;;;;;;3.40;1.43;;;22.40;99.90;;;;;;5059631;28;20192;-68